Time;durP1;ratioP1;P1;durP2;ratioP2;P2;SDS_P1;SDS_P2;PMS_P1;PMS_P2;Temp;Humidity;BMP_temperature;BMP_pressure;BME280_temperature;BME280_humidity;BME280_pressure;Samples;Min_cycle;Max_cycle;Signal;HPM_P1;HPM_P2
2020/12/08 00:01:32;;;;;;;26.23;18.33;;;5.80;99.90;;;;;;5033205;28;20172;-72
2020/12/08 00:03:57;;;;;;;23.37;17.10;;;5.80;99.90;;;;;;5033035;28;20205;-74
2020/12/08 00:06:23;;;;;;;27.50;17.33;;;5.80;99.90;;;;;;5032989;28;20178;-71
2020/12/08 00:08:48;;;;;;;23.90;16.67;;;5.80;99.90;;;;;;5033094;28;20282;-71
2020/12/08 00:11:16;;;;;;;24.13;17.80;;;5.80;99.90;;;;;;5033021;28;20179;-72
2020/12/08 00:13:45;;;;;;;27.50;18.33;;;5.80;99.90;;;;;;5033003;28;20163;-74
2020/12/08 00:16:12;;;;;;;23.97;18.03;;;5.80;99.90;;;;;;5031412;28;20482;-71
2020/12/08 00:18:38;;;;;;;23.30;17.23;;;5.80;99.90;;;;;;5033246;28;20422;-72
2020/12/08 00:21:04;;;;;;;25.70;18.63;;;5.80;99.90;;;;;;5032761;28;20411;-76
2020/12/08 00:23:30;;;;;;;24.97;16.80;;;5.80;99.90;;;;;;5032897;28;20448;-73
2020/12/08 00:25:55;;;;;;;30.63;18.60;;;5.80;99.90;;;;;;5032831;28;20182;-72
2020/12/08 00:28:20;;;;;;;25.67;18.20;;;5.90;99.90;;;;;;5032698;28;20269;-71
2020/12/08 00:30:46;;;;;;;28.60;20.00;;;5.80;99.90;;;;;;5032715;28;20178;-74
2020/12/08 00:33:11;;;;;;;29.63;20.13;;;5.80;99.90;;;;;;5032646;28;20529;-72
2020/12/08 00:35:37;;;;;;;28.90;19.90;;;5.80;99.90;;;;;;5032838;28;20198;-71
2020/12/08 00:38:02;;;;;;;28.37;20.80;;;5.80;99.90;;;;;;5032457;28;20616;-73
2020/12/08 00:40:28;;;;;;;26.50;20.30;;;5.80;99.90;;;;;;5032890;28;20168;-71
2020/12/08 00:42:53;;;;;;;29.50;20.03;;;5.80;99.90;;;;;;5032725;28;20167;-72
2020/12/08 00:45:19;;;;;;;26.53;19.90;;;5.80;99.90;;;;;;5032361;28;20616;-72
2020/12/08 00:47:47;;;;;;;28.53;20.57;;;5.80;99.90;;;;;;5032404;28;20175;-74
2020/12/08 00:50:13;;;;;;;31.30;20.37;;;5.80;99.90;;;;;;5012628;28;20183;-72
2020/12/08 00:52:39;;;;;;;28.00;21.47;;;5.80;99.90;;;;;;5012680;28;20407;-71
2020/12/08 00:55:06;;;;;;;33.47;22.93;;;5.80;99.90;;;;;;5012858;28;20668;-73
2020/12/08 00:57:32;;;;;;;28.60;22.37;;;5.80;99.90;;;;;;5012565;28;20473;-72
2020/12/08 00:59:58;;;;;;;31.50;22.93;;;5.80;99.90;;;;;;5012561;28;20438;-71
2020/12/08 01:02:23;;;;;;;37.17;23.17;;;5.80;99.90;;;;;;5012591;28;20412;-72
2020/12/08 01:04:49;;;;;;;35.70;22.17;;;5.70;99.90;;;;;;5011953;28;20176;-75
2020/12/08 01:07:15;;;;;;;29.47;21.57;;;5.80;99.90;;;;;;5012631;28;20176;-72
2020/12/08 01:09:41;;;;;;;39.13;23.27;;;5.70;99.90;;;;;;5012453;28;20212;-71
2020/12/08 01:12:07;;;;;;;33.77;23.93;;;5.70;99.90;;;;;;5012534;28;20731;-71
2020/12/08 01:14:32;;;;;;;32.73;21.90;;;5.70;99.90;;;;;;5012166;28;20172;-71
2020/12/08 01:16:59;;;;;;;34.43;24.93;;;5.60;99.90;;;;;;5012226;28;20414;-71
2020/12/08 01:19:25;;;;;;;37.97;23.47;;;5.60;99.90;;;;;;5012194;28;20657;-71
2020/12/08 01:21:51;;;;;;;32.60;23.30;;;5.60;99.90;;;;;;5012222;28;20446;-71
2020/12/08 01:24:18;;;;;;;39.07;25.27;;;5.60;99.90;;;;;;5012306;28;20461;-70
2020/12/08 01:26:43;;;;;;;48.30;24.77;;;5.60;99.90;;;;;;5012222;28;20443;-71
2020/12/08 01:29:08;;;;;;;35.20;24.07;;;5.50;99.90;;;;;;5012139;28;20478;-71
2020/12/08 01:31:34;;;;;;;37.80;25.20;;;5.50;99.90;;;;;;5012177;28;20180;-71
2020/12/08 01:34:00;;;;;;;34.20;23.60;;;5.50;99.90;;;;;;5012282;28;20206;-71
2020/12/08 01:36:25;;;;;;;40.20;26.10;;;5.60;99.90;;;;;;5012122;28;20218;-71
2020/12/08 01:38:51;;;;;;;35.80;26.87;;;5.60;99.90;;;;;;5012178;28;20177;-71
2020/12/08 01:41:16;;;;;;;36.47;24.13;;;5.60;99.90;;;;;;5012046;28;20168;-72
2020/12/08 01:43:49;;;;;;;37.67;24.90;;;5.60;99.90;;;;;;5012077;28;20165;-71
2020/12/08 01:46:17;;;;;;;39.13;24.63;;;5.60;99.90;;;;;;5012180;28;20184;-71
2020/12/08 01:48:43;;;;;;;36.57;24.27;;;5.70;99.90;;;;;;5011850;28;20459;-73
2020/12/08 01:51:08;;;;;;;41.10;26.00;;;5.70;99.90;;;;;;5012053;28;20486;-74
2020/12/08 01:53:34;;;;;;;41.87;26.13;;;5.70;99.90;;;;;;5011982;28;21022;-71
2020/12/08 01:55:59;;;;;;;40.77;26.63;;;5.70;99.90;;;;;;5011863;28;20550;-70
2020/12/08 01:58:25;;;;;;;38.10;25.40;;;5.70;99.90;;;;;;5011678;28;20214;-72
2020/12/08 02:00:50;;;;;;;34.13;23.10;;;5.70;99.90;;;;;;5012008;28;20259;-71
2020/12/08 02:03:17;;;;;;;39.43;24.60;;;5.70;99.90;;;;;;5012016;28;20262;-71
2020/12/08 02:05:46;;;;;;;39.40;24.30;;;5.70;99.90;;;;;;5011872;28;20176;-72
2020/12/08 02:08:11;;;;;;;36.07;24.30;;;5.70;99.90;;;;;;5010984;28;20942;-71
2020/12/08 02:10:38;;;;;;;37.47;26.07;;;5.80;99.90;;;;;;5011741;28;20418;-71
2020/12/08 02:13:05;;;;;;;35.73;26.17;;;5.80;99.90;;;;;;5011725;28;20582;-71
2020/12/08 02:15:31;;;;;;;39.27;26.30;;;5.80;99.90;;;;;;5013544;28;20454;-72
2020/12/08 02:17:57;;;;;;;36.20;24.17;;;5.80;99.90;;;;;;5015293;28;20423;-73
2020/12/08 02:20:26;;;;;;;33.73;24.07;;;5.70;99.90;;;;;;5015470;28;20876;-71
2020/12/08 02:22:54;;;;;;;37.97;24.93;;;5.80;99.90;;;;;;5015635;28;20172;-70
2020/12/08 02:25:19;;;;;;;31.70;22.23;;;5.80;99.90;;;;;;5015312;28;20414;-74
2020/12/08 02:27:45;;;;;;;37.23;24.90;;;5.80;99.90;;;;;;5015182;28;20489;-71
2020/12/08 02:30:10;;;;;;;35.30;24.17;;;5.80;99.90;;;;;;5015164;28;20196;-71
2020/12/08 02:32:36;;;;;;;36.10;24.40;;;5.80;99.90;;;;;;5015246;28;20605;-71
2020/12/08 02:35:02;;;;;;;36.50;25.50;;;5.70;99.90;;;;;;5015077;28;20215;-74
2020/12/08 02:37:27;;;;;;;41.83;24.90;;;5.80;99.90;;;;;;5014908;28;20168;-71
2020/12/08 02:39:53;;;;;;;41.63;24.33;;;5.70;99.90;;;;;;5015116;28;20191;-71
2020/12/08 02:42:18;;;;;;;37.07;23.47;;;5.70;99.90;;;;;;5015063;28;20825;-71
2020/12/08 02:44:44;;;;;;;38.60;25.40;;;5.70;99.90;;;;;;5015223;28;20161;-72
2020/12/08 02:47:09;;;;;;;46.10;27.63;;;5.70;99.90;;;;;;5013752;28;20184;-71
2020/12/08 02:49:35;;;;;;;38.50;23.50;;;5.80;99.90;;;;;;5014884;28;20241;-71
2020/12/08 02:52:00;;;;;;;34.10;25.13;;;5.80;99.90;;;;;;5014844;28;20172;-71
2020/12/08 02:54:26;;;;;;;42.63;27.73;;;5.70;99.90;;;;;;5015161;28;20172;-74
2020/12/08 02:56:51;;;;;;;44.00;24.17;;;5.70;99.90;;;;;;5014532;28;20254;-70
2020/12/08 02:59:17;;;;;;;40.20;25.77;;;5.70;99.90;;;;;;5014815;28;20232;-71
2020/12/08 03:01:42;;;;;;;36.10;25.27;;;5.70;99.90;;;;;;5014766;28;20160;-73
2020/12/08 03:04:07;;;;;;;34.57;24.97;;;5.70;99.90;;;;;;5014731;28;20219;-71
2020/12/08 03:06:33;;;;;;;43.57;26.00;;;5.70;99.90;;;;;;5014424;28;20176;-71
2020/12/08 03:08:58;;;;;;;39.20;26.47;;;5.70;99.90;;;;;;5014327;28;20219;-71
2020/12/08 03:11:31;;;;;;;30.67;24.40;;;5.70;99.90;;;;;;5014502;28;20238;-71
2020/12/08 03:13:57;;;;;;;38.63;25.60;;;5.60;99.90;;;;;;5014527;28;20173;-71
2020/12/08 03:16:22;;;;;;;36.73;24.77;;;5.70;99.90;;;;;;5014252;28;20455;-74
2020/12/08 03:18:48;;;;;;;37.63;26.43;;;5.70;99.90;;;;;;5014313;28;20181;-71
2020/12/08 03:21:13;;;;;;;37.50;24.93;;;5.60;99.90;;;;;;5014507;28;20168;-71
2020/12/08 03:23:40;;;;;;;39.20;25.10;;;5.60;99.90;;;;;;5014375;28;20588;-73
2020/12/08 03:26:05;;;;;;;50.27;28.57;;;5.60;99.90;;;;;;5013710;28;20184;-71
2020/12/08 03:28:30;;;;;;;40.27;25.60;;;5.60;99.90;;;;;;5014149;28;20916;-71
2020/12/08 03:30:56;;;;;;;36.37;25.80;;;5.70;99.90;;;;;;5014188;28;20200;-71
2020/12/08 03:33:21;;;;;;;42.40;26.80;;;5.70;99.90;;;;;;5014121;28;20660;-71
2020/12/08 03:35:47;;;;;;;45.67;27.93;;;5.70;99.90;;;;;;5013982;28;20311;-72
2020/12/08 03:38:12;;;;;;;39.67;24.70;;;5.70;99.90;;;;;;5014043;28;20780;-71
2020/12/08 03:40:38;;;;;;;33.87;25.63;;;5.70;99.90;;;;;;5013912;28;20180;-71
2020/12/08 03:43:03;;;;;;;40.30;25.03;;;5.70;99.90;;;;;;5013973;28;20176;-71
2020/12/08 03:45:29;;;;;;;36.80;25.53;;;5.70;99.90;;;;;;5013940;28;20656;-70
2020/12/08 03:47:54;;;;;;;38.00;25.87;;;5.80;99.90;;;;;;5013663;28;20610;-71
2020/12/08 03:50:20;;;;;;;36.97;23.83;;;5.80;99.90;;;;;;5014271;28;20246;-72
2020/12/08 03:52:45;;;;;;;35.20;25.87;;;5.80;99.90;;;;;;5013670;28;20182;-71
2020/12/08 03:55:10;;;;;;;43.07;25.80;;;5.80;99.90;;;;;;5013608;28;20715;-71
2020/12/08 03:57:36;;;;;;;36.83;25.47;;;5.80;99.90;;;;;;5013542;28;20219;-71
2020/12/08 04:00:05;;;;;;;38.77;26.80;;;5.70;99.90;;;;;;5013870;28;20202;-74
2020/12/08 04:02:30;;;;;;;36.00;24.33;;;5.80;99.90;;;;;;5013506;28;20188;-71
2020/12/08 04:04:56;;;;;;;35.93;24.27;;;5.80;99.90;;;;;;5013495;28;20404;-71
2020/12/08 04:07:21;;;;;;;40.97;26.50;;;5.70;99.90;;;;;;5013388;28;20586;-71
2020/12/08 04:09:47;;;;;;;37.87;23.57;;;5.80;99.90;;;;;;5013209;28;20270;-71
2020/12/08 04:12:12;;;;;;;40.07;24.80;;;5.80;99.90;;;;;;5013450;28;20183;-73
2020/12/08 04:14:37;;;;;;;37.70;24.33;;;5.80;99.90;;;;;;5013450;28;20209;-72
2020/12/08 04:17:03;;;;;;;39.77;27.43;;;5.80;99.90;;;;;;5013838;28;20160;-72
2020/12/08 04:19:28;;;;;;;39.33;28.00;;;5.80;99.90;;;;;;5013225;28;20661;-70
2020/12/08 04:22:00;;;;;;;40.87;26.57;;;5.80;99.90;;;;;;5013182;28;20173;-71
2020/12/08 04:24:26;;;;;;;35.70;25.63;;;5.80;99.90;;;;;;5013109;28;20168;-71
2020/12/08 04:26:52;;;;;;;41.13;25.80;;;5.80;99.90;;;;;;5013039;28;20407;-71
2020/12/08 04:29:17;;;;;;;37.47;24.20;;;5.80;99.90;;;;;;5013136;28;20188;-71
2020/12/08 04:31:43;;;;;;;41.20;26.67;;;5.80;99.90;;;;;;5013139;28;20651;-72
2020/12/08 04:34:08;;;;;;;38.60;25.57;;;5.80;99.90;;;;;;5013117;28;20188;-71
2020/12/08 04:36:34;;;;;;;40.03;25.40;;;5.80;99.90;;;;;;5012959;28;20413;-71
2020/12/08 04:38:59;;;;;;;34.73;23.47;;;5.80;99.90;;;;;;5012949;28;20740;-71
2020/12/08 04:41:26;;;;;;;41.40;26.10;;;5.80;99.90;;;;;;5012958;28;20263;-75
2020/12/08 04:43:52;;;;;;;37.93;23.80;;;5.70;99.90;;;;;;5012790;28;20629;-72
2020/12/08 04:46:19;;;;;;;39.30;26.57;;;5.80;99.90;;;;;;5012662;28;20423;-71
2020/12/08 04:48:46;;;;;;;37.40;25.17;;;5.80;99.90;;;;;;5012931;28;20506;-71
2020/12/08 04:51:12;;;;;;;43.00;26.60;;;5.80;99.90;;;;;;5012987;28;20413;-72
2020/12/08 04:53:37;;;;;;;39.20;26.17;;;5.80;99.90;;;;;;5012611;28;20411;-73
2020/12/08 04:56:03;;;;;;;36.80;25.57;;;5.80;99.90;;;;;;5012493;28;20195;-72
2020/12/08 04:58:29;;;;;;;41.90;27.17;;;5.80;99.90;;;;;;5012462;28;20621;-72
2020/12/08 05:00:54;;;;;;;42.30;26.63;;;5.80;99.90;;;;;;5012371;28;20210;-72
2020/12/08 05:03:24;;;;;;;37.93;25.37;;;5.80;99.90;;;;;;5012613;28;20439;-72
2020/12/08 05:05:50;;;;;;;38.80;26.30;;;5.80;99.90;;;;;;5012407;28;20606;-70
2020/12/08 05:08:16;;;;;;;39.10;23.17;;;5.70;99.90;;;;;;5012248;28;20447;-72
2020/12/08 05:10:42;;;;;;;36.97;24.10;;;5.70;99.90;;;;;;5012371;28;20411;-72
2020/12/08 05:13:18;;;;;;;42.90;27.10;;;5.70;99.90;;;;;;5012493;28;20480;-71
2020/12/08 05:15:59;;;;;;;37.67;25.90;;;5.70;99.90;;;;;;5012199;28;20962;-71
2020/12/08 05:18:24;;;;;;;39.67;25.67;;;5.60;99.90;;;;;;5012222;28;20534;-73
2020/12/08 05:20:50;;;;;;;32.40;23.43;;;5.70;99.90;;;;;;5012170;28;20522;-71
2020/12/08 05:23:15;;;;;;;34.43;23.70;;;5.70;99.90;;;;;;5012213;28;20160;-70
2020/12/08 05:25:44;;;;;;;40.60;27.00;;;5.60;99.90;;;;;;5012245;28;20881;-70
2020/12/08 05:28:17;;;;;;;39.00;25.50;;;5.60;99.90;;;;;;5011932;28;20279;-70
2020/12/08 05:30:46;;;;;;;39.87;24.60;;;5.60;99.90;;;;;;5012181;28;20883;-70
2020/12/08 05:33:17;;;;;;;37.47;26.73;;;5.60;99.90;;;;;;5010869;28;20469;-73
2020/12/08 05:35:45;;;;;;;38.57;26.30;;;5.60;99.90;;;;;;5012071;28;20446;-70
2020/12/08 05:38:14;;;;;;;43.77;26.27;;;5.60;99.90;;;;;;5011984;28;20426;-70
2020/12/08 05:40:43;;;;;;;37.30;24.87;;;5.60;99.90;;;;;;5011959;28;20418;-70
2020/12/08 05:43:09;;;;;;;37.90;26.53;;;5.60;99.90;;;;;;5012229;28;20403;-71
2020/12/08 05:45:37;;;;;;;33.67;25.03;;;5.60;99.90;;;;;;5012259;28;20413;-71
2020/12/08 05:48:03;;;;;;;39.77;27.07;;;5.60;99.90;;;;;;5011959;28;20829;-74
2020/12/08 05:50:28;;;;;;;39.67;25.80;;;5.50;99.90;;;;;;5014170;28;20478;-70
2020/12/08 05:52:59;;;;;;;39.50;25.63;;;5.60;99.90;;;;;;5015863;28;20893;-70
2020/12/08 05:55:31;;;;;;;34.37;24.03;;;5.50;99.90;;;;;;5015907;28;20262;-71
2020/12/08 05:58:05;;;;;;;41.93;26.13;;;5.60;99.90;;;;;;5014400;28;20416;-73
2020/12/08 06:00:32;;;;;;;39.77;25.07;;;5.60;99.90;;;;;;5016084;28;20398;-71
2020/12/08 06:03:09;;;;;;;40.43;27.80;;;5.50;99.90;;;;;;5015842;28;20414;-71
2020/12/08 06:05:35;;;;;;;38.80;25.17;;;5.50;99.90;;;;;;5015623;28;20476;-72
2020/12/08 06:08:13;;;;;;;37.07;25.30;;;5.40;99.90;;;;;;5015368;28;20461;-70
2020/12/08 06:10:46;;;;;;;40.00;26.53;;;5.40;99.90;;;;;;5015656;28;20956;-71
2020/12/08 06:13:26;;;;;;;42.17;27.27;;;5.40;99.90;;;;;;5015783;28;20921;-71
2020/12/08 06:15:51;;;;;;;38.37;25.37;;;5.40;99.90;;;;;;5015449;28;20447;-73
2020/12/08 06:18:28;;;;;;;43.20;27.50;;;5.40;99.90;;;;;;5015340;28;20839;-71
2020/12/08 06:20:53;;;;;;;37.17;26.23;;;5.40;99.90;;;;;;5015375;28;20164;-73
2020/12/08 06:23:19;;;;;;;41.83;27.20;;;5.40;99.90;;;;;;5015293;28;20410;-71
2020/12/08 06:25:44;;;;;;;37.50;25.20;;;5.40;99.90;;;;;;5015156;28;20180;-71
2020/12/08 06:28:10;;;;;;;42.07;27.30;;;5.40;99.90;;;;;;5015167;28;20224;-72
2020/12/08 06:30:38;;;;;;;40.93;25.37;;;5.40;99.90;;;;;;5015264;28;20548;-71
2020/12/08 06:33:04;;;;;;;37.60;25.80;;;5.30;99.90;;;;;;5030547;28;20629;-72
2020/12/08 06:35:33;;;;;;;37.83;25.30;;;5.30;99.90;;;;;;5015011;28;20447;-71
2020/12/08 06:38:01;;;;;;;36.83;24.97;;;5.30;99.90;;;;;;5015093;28;20179;-71
2020/12/08 06:40:26;;;;;;;40.97;27.03;;;5.30;99.90;;;;;;5030150;28;20423;-71
2020/12/08 06:42:52;;;;;;;39.90;25.00;;;5.30;99.90;;;;;;5014988;28;20550;-73
2020/12/08 06:45:22;;;;;;;43.27;25.70;;;5.30;99.90;;;;;;5014878;28;20191;-73
2020/12/08 06:47:49;;;;;;;41.33;24.40;;;5.30;99.90;;;;;;5014731;28;20395;-72
2020/12/08 06:50:28;;;;;;;34.60;24.07;;;5.30;99.90;;;;;;5014901;28;20785;-72
2020/12/08 06:52:56;;;;;;;38.73;25.50;;;5.30;99.90;;;;;;5014793;28;20875;-74
2020/12/08 06:55:22;;;;;;;39.57;24.43;;;5.30;99.90;;;;;;5014707;28;20446;-71
2020/12/08 06:57:48;;;;;;;42.67;26.77;;;5.30;99.90;;;;;;5014529;28;20422;-71
2020/12/08 07:00:14;;;;;;;41.73;26.53;;;5.20;99.90;;;;;;5014863;28;20403;-71
2020/12/08 07:02:50;;;;;;;42.97;25.20;;;5.30;99.90;;;;;;5013492;28;20948;-71
2020/12/08 07:05:20;;;;;;;42.77;25.93;;;5.30;99.90;;;;;;5014706;28;20566;-71
2020/12/08 07:07:46;;;;;;;46.13;26.13;;;5.30;99.90;;;;;;5014569;28;20771;-71
2020/12/08 07:10:12;;;;;;;35.43;24.87;;;5.30;99.90;;;;;;5014943;28;20446;-71
2020/12/08 07:12:49;;;;;;;42.70;25.33;;;5.30;99.90;;;;;;5014740;28;20477;-71
2020/12/08 07:15:25;;;;;;;43.33;26.83;;;5.20;99.90;;;;;;5014403;28;20458;-71
2020/12/08 07:17:57;;;;;;;37.13;24.70;;;5.20;99.90;;;;;;5014266;28;20402;-74
2020/12/08 07:20:24;;;;;;;37.70;25.90;;;5.20;99.90;;;;;;5014466;28;20434;-72
2020/12/08 07:22:50;;;;;;;36.93;26.03;;;5.20;99.90;;;;;;5014172;28;20411;-71
2020/12/08 07:25:17;;;;;;;35.93;24.27;;;5.20;99.90;;;;;;5014276;28;20423;-71
2020/12/08 07:27:45;;;;;;;37.50;24.13;;;5.20;99.90;;;;;;5014201;28;20430;-71
2020/12/08 07:30:11;;;;;;;37.30;24.20;;;5.20;99.90;;;;;;5014181;28;20881;-71
2020/12/08 07:32:37;;;;;;;38.00;24.53;;;5.10;99.90;;;;;;5014157;28;20881;-71
2020/12/08 07:35:03;;;;;;;42.43;24.03;;;5.10;99.90;;;;;;5013896;28;20455;-71
2020/12/08 07:37:36;;;;;;;40.60;24.80;;;5.10;99.90;;;;;;5013772;28;20604;-71
2020/12/08 07:40:06;;;;;;;41.27;25.80;;;5.10;99.90;;;;;;5014038;28;20489;-74
2020/12/08 07:42:32;;;;;;;37.30;24.80;;;5.10;99.90;;;;;;5013852;28;20411;-72
2020/12/08 07:44:58;;;;;;;43.73;26.13;;;5.20;99.90;;;;;;5013834;28;20411;-72
2020/12/08 07:47:24;;;;;;;40.83;26.60;;;5.10;99.90;;;;;;5013657;28;20179;-72
2020/12/08 07:49:49;;;;;;;41.03;24.60;;;5.10;99.90;;;;;;5013543;28;20935;-72
2020/12/08 07:52:18;;;;;;;37.93;25.90;;;5.10;99.90;;;;;;5013743;28;20641;-72
2020/12/08 07:54:45;;;;;;;39.93;25.30;;;5.10;99.90;;;;;;5013570;28;20176;-72
2020/12/08 07:57:10;;;;;;;39.00;24.80;;;5.10;99.90;;;;;;5013366;28;20410;-72
2020/12/08 07:59:37;;;;;;;39.83;24.60;;;5.10;99.90;;;;;;5013491;28;20911;-72
2020/12/08 08:02:03;;;;;;;42.43;25.60;;;5.10;99.90;;;;;;5013650;28;20521;-73
2020/12/08 08:04:30;;;;;;;40.30;27.07;;;5.10;99.90;;;;;;5013450;28;20519;-72
2020/12/08 08:06:56;;;;;;;37.17;24.80;;;5.10;99.90;;;;;;5013469;28;20168;-72
2020/12/08 08:09:21;;;;;;;42.30;24.03;;;5.10;99.90;;;;;;5013129;28;20455;-72
2020/12/08 08:11:47;;;;;;;35.20;24.30;;;5.20;99.90;;;;;;5013429;28;20411;-72
2020/12/08 08:14:13;;;;;;;35.30;24.20;;;5.20;99.90;;;;;;5013058;28;20215;-72
2020/12/08 08:16:39;;;;;;;34.90;24.67;;;5.20;99.90;;;;;;5028335;28;20204;-72
2020/12/08 08:19:05;;;;;;;35.70;25.53;;;5.20;99.90;;;;;;5012897;28;20216;-73
2020/12/08 08:21:31;;;;;;;39.90;23.57;;;5.20;99.90;;;;;;5013170;28;20415;-71
2020/12/08 08:24:00;;;;;;;39.50;25.87;;;5.30;99.90;;;;;;5013118;28;20165;-72
2020/12/08 08:26:26;;;;;;;37.53;25.63;;;5.30;99.90;;;;;;5013457;28;20419;-74
2020/12/08 08:28:53;;;;;;;35.03;25.00;;;5.30;99.90;;;;;;5012982;28;20419;-73
2020/12/08 08:31:19;;;;;;;40.20;26.07;;;5.30;99.90;;;;;;5013009;28;20770;-73
2020/12/08 08:33:45;;;;;;;34.93;23.47;;;5.30;99.90;;;;;;5013091;28;20461;-73
2020/12/08 08:36:10;;;;;;;40.80;23.13;;;5.30;99.90;;;;;;5012855;28;20455;-73
2020/12/08 08:38:36;;;;;;;39.90;26.13;;;5.40;99.90;;;;;;5013181;28;20536;-73
2020/12/08 08:41:02;;;;;;;35.40;23.90;;;5.40;99.90;;;;;;5012908;28;20775;-73
2020/12/08 08:43:28;;;;;;;35.03;23.23;;;5.40;99.90;;;;;;5012942;28;20168;-74
2020/12/08 08:45:55;;;;;;;33.77;24.00;;;5.60;99.90;;;;;;5027800;28;20943;-73
2020/12/08 08:48:21;;;;;;;33.87;23.17;;;5.70;99.90;;;;;;5012668;28;20571;-74
2020/12/08 08:50:51;;;;;;;35.73;23.73;;;5.70;99.90;;;;;;5012802;28;20526;-73
2020/12/08 08:53:17;;;;;;;38.30;25.43;;;5.70;99.90;;;;;;5012959;28;20815;-73
2020/12/08 08:55:43;;;;;;;40.80;25.80;;;5.60;99.90;;;;;;5012777;28;20443;-73
2020/12/08 08:58:09;;;;;;;35.40;23.77;;;5.50;99.90;;;;;;5012377;28;20435;-73
2020/12/08 09:00:34;;;;;;;36.57;24.10;;;5.40;99.90;;;;;;5012476;28;20418;-73
2020/12/08 09:03:00;;;;;;;37.07;25.20;;;5.40;99.90;;;;;;5012439;28;20165;-73
2020/12/08 09:05:27;;;;;;;35.57;25.20;;;5.30;99.90;;;;;;5012446;28;20625;-73
2020/12/08 09:07:53;;;;;;;43.43;27.13;;;5.20;99.90;;;;;;5012119;28;20415;-73
2020/12/08 09:10:19;;;;;;;34.33;25.77;;;5.20;99.90;;;;;;5012711;28;21050;-71
2020/12/08 09:12:44;;;;;;;37.97;24.80;;;5.20;99.90;;;;;;5012785;28;20430;-73
2020/12/08 09:15:11;;;;;;;35.83;25.43;;;5.20;99.90;;;;;;5031299;28;20230;-71
2020/12/08 09:17:36;;;;;;;40.53;24.37;;;5.10;99.90;;;;;;5031948;28;20171;-71
2020/12/08 09:20:03;;;;;;;36.63;24.07;;;5.20;99.90;;;;;;5031960;28;20430;-73
2020/12/08 09:22:29;;;;;;;43.77;27.00;;;5.10;99.90;;;;;;5031942;28;20182;-68
2020/12/08 09:24:54;;;;;;;36.43;24.83;;;5.10;99.90;;;;;;5031364;28;20882;-71
2020/12/08 09:27:20;;;;;;;38.10;26.10;;;5.10;99.90;;;;;;5031869;28;20628;-72
2020/12/08 09:29:46;;;;;;;41.10;25.67;;;5.00;99.90;;;;;;5030307;28;20180;-72
2020/12/08 09:32:11;;;;;;;34.07;26.30;;;5.00;99.90;;;;;;5012117;28;20514;-70
2020/12/08 09:34:37;;;;;;;36.67;24.77;;;5.00;99.90;;;;;;5012141;28;20165;-72
2020/12/08 09:37:04;;;;;;;37.73;24.40;;;5.00;99.90;;;;;;5012039;28;20211;-72
2020/12/08 09:39:30;;;;;;;34.83;25.10;;;5.00;99.90;;;;;;5012186;28;20420;-72
2020/12/08 09:41:56;;;;;;;41.50;23.30;;;5.00;99.90;;;;;;5012071;28;20403;-72
2020/12/08 09:44:24;;;;;;;40.93;25.73;;;4.90;99.90;;;;;;5011871;28;20399;-72
2020/12/08 09:46:50;;;;;;;38.37;24.73;;;5.00;99.90;;;;;;5019828;28;20435;-71
2020/12/08 09:49:16;;;;;;;39.50;25.90;;;5.00;99.90;;;;;;5031435;28;20773;-72
2020/12/08 09:51:42;;;;;;;36.60;25.23;;;5.00;99.90;;;;;;5031707;28;20171;-71
2020/12/08 09:54:07;;;;;;;40.63;24.00;;;5.00;99.90;;;;;;5031818;28;20249;-72
2020/12/08 09:56:33;;;;;;;35.43;25.43;;;5.00;99.90;;;;;;5031534;28;20199;-72
2020/12/08 09:58:59;;;;;;;36.53;23.97;;;5.00;99.90;;;;;;5031639;28;20196;-73
2020/12/08 10:01:26;;;;;;;40.70;26.37;;;5.10;99.90;;;;;;5031698;28;20191;-74
2020/12/08 10:03:52;;;;;;;38.63;25.27;;;5.10;99.90;;;;;;5031658;28;20410;-73
2020/12/08 10:06:18;;;;;;;33.60;23.60;;;5.20;99.90;;;;;;5032090;28;20414;-72
2020/12/08 10:08:44;;;;;;;35.47;24.37;;;5.20;99.90;;;;;;5031591;28;20457;-72
2020/12/08 10:11:09;;;;;;;38.70;24.67;;;5.20;99.90;;;;;;5031657;28;20178;-73
2020/12/08 10:13:35;;;;;;;34.80;24.80;;;5.20;99.90;;;;;;5032069;28;20608;-72
2020/12/08 10:16:01;;;;;;;34.50;25.93;;;5.30;99.90;;;;;;5031545;28;20210;-72
2020/12/08 10:18:26;;;;;;;42.23;25.63;;;5.30;99.90;;;;;;5031841;28;20192;-72
2020/12/08 10:20:53;;;;;;;36.97;24.00;;;5.30;99.90;;;;;;5032011;28;20234;-72
2020/12/08 10:23:18;;;;;;;38.17;25.10;;;5.40;99.90;;;;;;5031520;28;20714;-72
2020/12/08 10:25:44;;;;;;;34.40;25.17;;;5.30;99.90;;;;;;5031768;28;20501;-73
2020/12/08 10:28:11;;;;;;;38.90;24.97;;;5.40;99.90;;;;;;5031155;28;20648;-74
2020/12/08 10:30:36;;;;;;;36.20;25.20;;;5.50;99.90;;;;;;5031625;28;20176;-73
2020/12/08 10:33:02;;;;;;;37.10;25.77;;;5.60;99.90;;;;;;5031464;28;20410;-74
2020/12/08 10:35:28;;;;;;;37.50;25.00;;;5.60;99.90;;;;;;5031748;28;20262;-72
2020/12/08 10:37:53;;;;;;;39.20;24.67;;;5.60;99.90;;;;;;5035016;28;20183;-72
2020/12/08 10:40:19;;;;;;;32.87;24.80;;;5.60;99.90;;;;;;5035112;28;20167;-72
2020/12/08 10:42:45;;;;;;;36.93;25.17;;;5.70;99.90;;;;;;5035087;28;20178;-72
2020/12/08 10:45:10;;;;;;;42.17;26.43;;;5.70;99.90;;;;;;5035208;28;20256;-72
2020/12/08 10:47:36;;;;;;;38.97;25.30;;;5.70;99.90;;;;;;5034689;28;20711;-72
2020/12/08 10:50:03;;;;;;;38.10;25.07;;;5.80;99.90;;;;;;5034821;28;20241;-72
2020/12/08 10:52:29;;;;;;;38.77;25.57;;;5.80;99.90;;;;;;5034957;28;20575;-72
2020/12/08 10:54:55;;;;;;;37.17;26.20;;;5.70;99.90;;;;;;5034326;28;20906;-73
2020/12/08 10:57:21;;;;;;;42.93;26.00;;;5.80;99.90;;;;;;5034008;28;20403;-72
2020/12/08 10:59:47;;;;;;;40.30;27.13;;;5.80;99.90;;;;;;5034364;28;20429;-73
2020/12/08 11:02:12;;;;;;;39.70;25.20;;;5.80;99.90;;;;;;5034162;28;20651;-72
2020/12/08 11:04:38;;;;;;;35.90;23.07;;;5.80;99.90;;;;;;5034348;28;20199;-72
2020/12/08 11:07:04;;;;;;;41.87;24.97;;;5.80;99.90;;;;;;5033516;28;20253;-72
2020/12/08 11:09:29;;;;;;;36.43;26.40;;;5.90;99.90;;;;;;5034058;28;20213;-73
2020/12/08 11:11:55;;;;;;;37.53;24.87;;;5.90;99.90;;;;;;5034249;28;20167;-72
2020/12/08 11:14:21;;;;;;;35.23;23.93;;;5.90;99.90;;;;;;5034322;28;20218;-72
2020/12/08 11:16:46;;;;;;;33.80;24.90;;;5.90;99.90;;;;;;5033980;28;20286;-72
2020/12/08 11:19:12;;;;;;;33.93;22.57;;;6.00;99.90;;;;;;5034045;28;20184;-73
2020/12/08 11:21:39;;;;;;;35.70;22.90;;;6.00;99.90;;;;;;5033907;28;20171;-73
2020/12/08 11:24:07;;;;;;;34.10;23.63;;;6.10;99.90;;;;;;5033853;28;20168;-72
2020/12/08 11:26:34;;;;;;;36.77;25.80;;;6.10;99.90;;;;;;5033759;28;20426;-72
2020/12/08 11:29:00;;;;;;;32.80;23.67;;;6.20;99.90;;;;;;5033862;28;20437;-72
2020/12/08 11:31:26;;;;;;;34.63;25.53;;;6.10;99.90;;;;;;5033892;28;20410;-73
2020/12/08 11:33:52;;;;;;;33.17;24.13;;;6.10;99.90;;;;;;5033901;28;20398;-72
2020/12/08 11:36:18;;;;;;;39.37;27.10;;;6.20;99.90;;;;;;5033566;28;20439;-72
2020/12/08 11:38:44;;;;;;;34.53;25.60;;;6.20;99.90;;;;;;5034098;28;20431;-73
2020/12/08 11:41:10;;;;;;;31.93;24.23;;;6.30;99.90;;;;;;5033493;28;20411;-73
2020/12/08 11:43:36;;;;;;;33.90;25.30;;;6.40;99.90;;;;;;5033637;28;20774;-71
2020/12/08 11:46:03;;;;;;;37.83;23.13;;;6.30;99.90;;;;;;5033559;28;20406;-71
2020/12/08 11:48:29;;;;;;;35.87;23.80;;;6.30;99.90;;;;;;5032785;28;20218;-72
2020/12/08 11:50:56;;;;;;;41.97;26.93;;;6.40;99.90;;;;;;5033732;28;20895;-72
2020/12/08 11:53:22;;;;;;;39.23;25.80;;;6.40;99.90;;;;;;5033409;28;20512;-72
2020/12/08 11:55:48;;;;;;;32.90;24.60;;;6.40;99.90;;;;;;5033242;28;20449;-72
2020/12/08 11:58:14;;;;;;;37.27;25.83;;;6.50;99.90;;;;;;5032999;28;20465;-72
2020/12/08 12:00:40;;;;;;;43.30;26.93;;;6.50;99.90;;;;;;5033287;28;20426;-72
2020/12/08 12:03:06;;;;;;;39.50;25.13;;;6.50;99.90;;;;;;5033400;28;20213;-73
2020/12/08 12:05:32;;;;;;;34.50;25.50;;;6.40;99.90;;;;;;5033205;28;20938;-73
2020/12/08 12:07:58;;;;;;;34.70;24.97;;;6.40;99.90;;;;;;5032802;28;20526;-73
2020/12/08 12:10:23;;;;;;;39.00;25.47;;;6.40;99.90;;;;;;5033085;28;20571;-73
2020/12/08 12:12:49;;;;;;;36.97;25.33;;;6.50;99.90;;;;;;5033175;28;20183;-73
2020/12/08 12:15:15;;;;;;;39.20;27.43;;;6.50;99.90;;;;;;5033008;28;20192;-73
2020/12/08 12:17:40;;;;;;;42.23;26.30;;;6.50;99.90;;;;;;5032744;28;20168;-72
2020/12/08 12:20:08;;;;;;;39.27;25.93;;;6.60;99.90;;;;;;5032903;28;20187;-73
2020/12/08 12:22:34;;;;;;;37.03;26.57;;;6.50;99.90;;;;;;5032740;28;20198;-73
2020/12/08 12:25:00;;;;;;;37.40;24.80;;;6.50;99.90;;;;;;5032874;28;20425;-73
2020/12/08 12:27:26;;;;;;;39.73;27.13;;;6.50;99.90;;;;;;5033080;28;20418;-74
2020/12/08 12:29:52;;;;;;;35.40;25.13;;;6.50;99.90;;;;;;5032731;28;20545;-74
2020/12/08 12:32:18;;;;;;;38.37;26.67;;;6.50;99.90;;;;;;5032989;28;20569;-73